sensor_id;sensor_type;location;lat;lon;timestamp;P1;durP1;ratioP1;P2;durP2;ratioP2
47113;SDS011;32867;51.556;6.832;2023-06-19T00:01:24;6.28;;;4.30;;
47113;SDS011;32867;51.556;6.832;2023-06-19T00:06:25;4.53;;;3.85;;
47113;SDS011;32867;51.556;6.832;2023-06-19T00:11:25;5.75;;;4.00;;
47113;SDS011;32867;51.556;6.832;2023-06-19T00:16:27;6.53;;;3.72;;
47113;SDS011;32867;51.556;6.832;2023-06-19T00:21:27;4.70;;;4.00;;
47113;SDS011;32867;51.556;6.832;2023-06-19T00:26:29;5.93;;;4.38;;
47113;SDS011;32867;51.556;6.832;2023-06-19T00:31:29;4.95;;;3.88;;
47113;SDS011;32867;51.556;6.832;2023-06-19T00:36:30;5.47;;;4.00;;
47113;SDS011;32867;51.556;6.832;2023-06-19T00:41:31;5.18;;;3.60;;
47113;SDS011;32867;51.556;6.832;2023-06-19T00:46:35;5.22;;;4.18;;
47113;SDS011;32867;51.556;6.832;2023-06-19T00:51:39;4.28;;;3.28;;
47113;SDS011;32867;51.556;6.832;2023-06-19T00:56:40;4.05;;;3.30;;
47113;SDS011;32867;51.556;6.832;2023-06-19T01:01:42;4.60;;;3.47;;
47113;SDS011;32867;51.556;6.832;2023-06-19T01:11:59;4.68;;;3.70;;
47113;SDS011;32867;51.556;6.832;2023-06-19T01:17:07;5.47;;;4.43;;
47113;SDS011;32867;51.556;6.832;2023-06-19T01:22:34;5.55;;;3.80;;
47113;SDS011;32867;51.556;6.832;2023-06-19T01:27:34;5.50;;;3.75;;
47113;SDS011;32867;51.556;6.832;2023-06-19T01:37:59;4.53;;;3.60;;
47113;SDS011;32867;51.556;6.832;2023-06-19T01:43:01;6.40;;;3.70;;
47113;SDS011;32867;51.556;6.832;2023-06-19T01:48:04;6.32;;;4.00;;
47113;SDS011;32867;51.556;6.832;2023-06-19T01:53:05;6.15;;;3.95;;
47113;SDS011;32867;51.556;6.832;2023-06-19T01:58:06;4.90;;;4.22;;
47113;SDS011;32867;51.556;6.832;2023-06-19T02:03:07;5.82;;;4.28;;
47113;SDS011;32867;51.556;6.832;2023-06-19T02:08:07;5.50;;;4.45;;
47113;SDS011;32867;51.556;6.832;2023-06-19T02:13:10;5.30;;;3.97;;
47113;SDS011;32867;51.556;6.832;2023-06-19T02:18:11;5.45;;;4.50;;
47113;SDS011;32867;51.556;6.832;2023-06-19T02:23:12;6.75;;;4.60;;
47113;SDS011;32867;51.556;6.832;2023-06-19T02:28:12;5.32;;;4.35;;
47113;SDS011;32867;51.556;6.832;2023-06-19T02:33:14;5.70;;;4.90;;
47113;SDS011;32867;51.556;6.832;2023-06-19T02:38:15;8.32;;;4.70;;
47113;SDS011;32867;51.556;6.832;2023-06-19T02:43:18;5.00;;;3.80;;
47113;SDS011;32867;51.556;6.832;2023-06-19T02:48:19;4.80;;;4.10;;
47113;SDS011;32867;51.556;6.832;2023-06-19T02:53:20;7.35;;;5.40;;
47113;SDS011;32867;51.556;6.832;2023-06-19T02:58:21;7.25;;;5.35;;
47113;SDS011;32867;51.556;6.832;2023-06-19T03:03:22;9.77;;;6.18;;
47113;SDS011;32867;51.556;6.832;2023-06-19T03:08:24;12.38;;;6.50;;
47113;SDS011;32867;51.556;6.832;2023-06-19T03:13:25;12.20;;;5.53;;
47113;SDS011;32867;51.556;6.832;2023-06-19T03:18:26;9.00;;;4.85;;
47113;SDS011;32867;51.556;6.832;2023-06-19T03:23:26;7.82;;;4.65;;
47113;SDS011;32867;51.556;6.832;2023-06-19T03:28:27;8.18;;;4.57;;
47113;SDS011;32867;51.556;6.832;2023-06-19T03:33:28;8.05;;;4.88;;
47113;SDS011;32867;51.556;6.832;2023-06-19T03:38:29;7.45;;;4.70;;
47113;SDS011;32867;51.556;6.832;2023-06-19T03:43:30;7.35;;;4.25;;
47113;SDS011;32867;51.556;6.832;2023-06-19T03:48:31;8.18;;;4.82;;
47113;SDS011;32867;51.556;6.832;2023-06-19T03:53:34;5.47;;;4.18;;
47113;SDS011;32867;51.556;6.832;2023-06-19T03:58:35;5.05;;;3.75;;
47113;SDS011;32867;51.556;6.832;2023-06-19T04:03:36;5.90;;;3.80;;
47113;SDS011;32867;51.556;6.832;2023-06-19T04:08:37;5.07;;;3.95;;
47113;SDS011;32867;51.556;6.832;2023-06-19T04:13:37;6.45;;;3.97;;
47113;SDS011;32867;51.556;6.832;2023-06-19T04:18:39;7.97;;;4.63;;
47113;SDS011;32867;51.556;6.832;2023-06-19T04:23:40;6.45;;;4.00;;
47113;SDS011;32867;51.556;6.832;2023-06-19T04:28:41;6.70;;;3.85;;
47113;SDS011;32867;51.556;6.832;2023-06-19T04:33:43;5.75;;;3.75;;
47113;SDS011;32867;51.556;6.832;2023-06-19T04:38:45;5.32;;;3.10;;
47113;SDS011;32867;51.556;6.832;2023-06-19T04:43:46;4.10;;;2.80;;
47113;SDS011;32867;51.556;6.832;2023-06-19T04:48:48;4.40;;;3.22;;
47113;SDS011;32867;51.556;6.832;2023-06-19T04:53:50;3.92;;;2.35;;
47113;SDS011;32867;51.556;6.832;2023-06-19T04:58:51;5.35;;;3.60;;
47113;SDS011;32867;51.556;6.832;2023-06-19T05:03:55;4.93;;;3.03;;
47113;SDS011;32867;51.556;6.832;2023-06-19T05:08:56;6.80;;;3.25;;
47113;SDS011;32867;51.556;6.832;2023-06-19T05:13:57;5.05;;;3.10;;
47113;SDS011;32867;51.556;6.832;2023-06-19T05:18:58;6.10;;;3.50;;
47113;SDS011;32867;51.556;6.832;2023-06-19T05:23:59;6.90;;;3.80;;
47113;SDS011;32867;51.556;6.832;2023-06-19T05:29:01;5.28;;;3.03;;
47113;SDS011;32867;51.556;6.832;2023-06-19T05:34:02;5.00;;;3.72;;
47113;SDS011;32867;51.556;6.832;2023-06-19T05:39:03;5.35;;;3.42;;
47113;SDS011;32867;51.556;6.832;2023-06-19T05:44:04;6.65;;;3.70;;
47113;SDS011;32867;51.556;6.832;2023-06-19T05:49:05;8.43;;;3.85;;
47113;SDS011;32867;51.556;6.832;2023-06-19T05:54:05;5.78;;;3.60;;
47113;SDS011;32867;51.556;6.832;2023-06-19T05:59:06;6.90;;;4.32;;
47113;SDS011;32867;51.556;6.832;2023-06-19T06:04:06;7.78;;;4.32;;
47113;SDS011;32867;51.556;6.832;2023-06-19T06:09:08;6.32;;;3.92;;
47113;SDS011;32867;51.556;6.832;2023-06-19T06:14:12;6.43;;;3.97;;
47113;SDS011;32867;51.556;6.832;2023-06-19T06:19:12;7.68;;;4.43;;
47113;SDS011;32867;51.556;6.832;2023-06-19T06:24:13;8.00;;;4.38;;
47113;SDS011;32867;51.556;6.832;2023-06-19T06:29:14;6.25;;;3.65;;
47113;SDS011;32867;51.556;6.832;2023-06-19T06:34:14;6.70;;;3.50;;
47113;SDS011;32867;51.556;6.832;2023-06-19T06:39:15;6.68;;;3.55;;
47113;SDS011;32867;51.556;6.832;2023-06-19T06:44:15;6.47;;;3.78;;
47113;SDS011;32867;51.556;6.832;2023-06-19T06:49:16;6.65;;;3.90;;
47113;SDS011;32867;51.556;6.832;2023-06-19T06:54:17;5.60;;;3.25;;
47113;SDS011;32867;51.556;6.832;2023-06-19T06:59:19;8.52;;;3.97;;
47113;SDS011;32867;51.556;6.832;2023-06-19T07:04:20;4.60;;;2.70;;
47113;SDS011;32867;51.556;6.832;2023-06-19T07:09:21;8.98;;;3.97;;
47113;SDS011;32867;51.556;6.832;2023-06-19T07:14:21;9.02;;;3.80;;
47113;SDS011;32867;51.556;6.832;2023-06-19T07:19:22;6.90;;;3.22;;
47113;SDS011;32867;51.556;6.832;2023-06-19T07:24:23;6.60;;;3.17;;
47113;SDS011;32867;51.556;6.832;2023-06-19T07:29:24;6.25;;;3.70;;
47113;SDS011;32867;51.556;6.832;2023-06-19T07:34:26;6.82;;;2.92;;
47113;SDS011;32867;51.556;6.832;2023-06-19T07:39:27;6.40;;;3.28;;
47113;SDS011;32867;51.556;6.832;2023-06-19T07:44:27;7.45;;;3.65;;
47113;SDS011;32867;51.556;6.832;2023-06-19T07:49:29;9.73;;;3.60;;
47113;SDS011;32867;51.556;6.832;2023-06-19T07:54:30;5.68;;;3.80;;
47113;SDS011;32867;51.556;6.832;2023-06-19T07:59:30;6.47;;;4.60;;
47113;SDS011;32867;51.556;6.832;2023-06-19T08:04:32;9.60;;;5.30;;
47113;SDS011;32867;51.556;6.832;2023-06-19T08:09:33;8.48;;;4.78;;
47113;SDS011;32867;51.556;6.832;2023-06-19T08:14:33;4.78;;;3.80;;
47113;SDS011;32867;51.556;6.832;2023-06-19T08:19:34;8.60;;;3.90;;
47113;SDS011;32867;51.556;6.832;2023-06-19T08:24:36;6.30;;;3.42;;
47113;SDS011;32867;51.556;6.832;2023-06-19T08:29:38;6.57;;;3.70;;
47113;SDS011;32867;51.556;6.832;2023-06-19T08:34:43;5.57;;;3.60;;
47113;SDS011;32867;51.556;6.832;2023-06-19T08:39:43;9.45;;;3.63;;
47113;SDS011;32867;51.556;6.832;2023-06-19T08:44:44;4.82;;;2.38;;
47113;SDS011;32867;51.556;6.832;2023-06-19T08:49:45;6.75;;;3.60;;
47113;SDS011;32867;51.556;6.832;2023-06-19T08:54:46;5.50;;;2.53;;
47113;SDS011;32867;51.556;6.832;2023-06-19T08:59:50;5.53;;;2.80;;
47113;SDS011;32867;51.556;6.832;2023-06-19T09:04:51;8.50;;;3.20;;
47113;SDS011;32867;51.556;6.832;2023-06-19T09:09:52;10.05;;;3.10;;
47113;SDS011;32867;51.556;6.832;2023-06-19T09:14:53;8.43;;;3.53;;
47113;SDS011;32867;51.556;6.832;2023-06-19T09:19:54;7.30;;;3.22;;
47113;SDS011;32867;51.556;6.832;2023-06-19T09:24:59;5.05;;;3.42;;
47113;SDS011;32867;51.556;6.832;2023-06-19T09:30:01;6.78;;;3.28;;
47113;SDS011;32867;51.556;6.832;2023-06-19T09:35:05;4.85;;;3.15;;
47113;SDS011;32867;51.556;6.832;2023-06-19T09:40:06;7.30;;;3.03;;
47113;SDS011;32867;51.556;6.832;2023-06-19T09:45:15;7.68;;;3.80;;
47113;SDS011;32867;51.556;6.832;2023-06-19T09:50:19;11.02;;;4.75;;
47113;SDS011;32867;51.556;6.832;2023-06-19T09:55:23;7.28;;;3.97;;
47113;SDS011;32867;51.556;6.832;2023-06-19T10:00:28;4.45;;;3.13;;
47113;SDS011;32867;51.556;6.832;2023-06-19T10:05:32;7.35;;;3.20;;
47113;SDS011;32867;51.556;6.832;2023-06-19T10:10:33;8.13;;;4.00;;
47113;SDS011;32867;51.556;6.832;2023-06-19T10:15:34;9.80;;;4.70;;
47113;SDS011;32867;51.556;6.832;2023-06-19T10:20:42;7.22;;;4.00;;
47113;SDS011;32867;51.556;6.832;2023-06-19T10:25:45;6.63;;;3.67;;
47113;SDS011;32867;51.556;6.832;2023-06-19T10:31:00;7.18;;;4.40;;
47113;SDS011;32867;51.556;6.832;2023-06-19T10:36:16;5.25;;;3.65;;
47113;SDS011;32867;51.556;6.832;2023-06-19T10:41:23;8.95;;;4.97;;
47113;SDS011;32867;51.556;6.832;2023-06-19T10:46:28;9.40;;;4.80;;
47113;SDS011;32867;51.556;6.832;2023-06-19T10:51:31;7.32;;;4.00;;
47113;SDS011;32867;51.556;6.832;2023-06-19T10:56:35;8.88;;;5.05;;
47113;SDS011;32867;51.556;6.832;2023-06-19T11:01:37;8.80;;;4.15;;
47113;SDS011;32867;51.556;6.832;2023-06-19T11:06:39;7.38;;;4.30;;
47113;SDS011;32867;51.556;6.832;2023-06-19T11:11:48;11.20;;;4.70;;
47113;SDS011;32867;51.556;6.832;2023-06-19T11:16:49;8.85;;;4.75;;
47113;SDS011;32867;51.556;6.832;2023-06-19T11:21:51;6.68;;;4.50;;
47113;SDS011;32867;51.556;6.832;2023-06-19T11:26:56;8.43;;;4.70;;
47113;SDS011;32867;51.556;6.832;2023-06-19T11:32:07;7.05;;;4.38;;
47113;SDS011;32867;51.556;6.832;2023-06-19T11:37:14;7.68;;;4.93;;
47113;SDS011;32867;51.556;6.832;2023-06-19T11:42:18;9.68;;;5.85;;
47113;SDS011;32867;51.556;6.832;2023-06-19T11:47:18;7.03;;;5.63;;
47113;SDS011;32867;51.556;6.832;2023-06-19T11:52:20;7.63;;;5.32;;
47113;SDS011;32867;51.556;6.832;2023-06-19T11:57:21;7.72;;;5.60;;
47113;SDS011;32867;51.556;6.832;2023-06-19T12:02:22;8.13;;;4.53;;
47113;SDS011;32867;51.556;6.832;2023-06-19T12:07:23;7.75;;;4.40;;
47113;SDS011;32867;51.556;6.832;2023-06-19T12:12:23;9.68;;;5.10;;
47113;SDS011;32867;51.556;6.832;2023-06-19T12:17:27;8.75;;;5.82;;
47113;SDS011;32867;51.556;6.832;2023-06-19T12:22:32;9.48;;;4.82;;
47113;SDS011;32867;51.556;6.832;2023-06-19T12:27:35;8.48;;;4.95;;
47113;SDS011;32867;51.556;6.832;2023-06-19T12:32:36;6.30;;;4.63;;
47113;SDS011;32867;51.556;6.832;2023-06-19T12:37:37;6.85;;;4.28;;
47113;SDS011;32867;51.556;6.832;2023-06-19T12:42:38;7.78;;;5.00;;
47113;SDS011;32867;51.556;6.832;2023-06-19T12:47:39;6.13;;;4.43;;
47113;SDS011;32867;51.556;6.832;2023-06-19T12:52:39;7.07;;;4.28;;
47113;SDS011;32867;51.556;6.832;2023-06-19T12:57:42;8.07;;;5.00;;
47113;SDS011;32867;51.556;6.832;2023-06-19T13:02:42;6.65;;;5.05;;
47113;SDS011;32867;51.556;6.832;2023-06-19T13:07:44;8.93;;;4.63;;
47113;SDS011;32867;51.556;6.832;2023-06-19T13:12:44;8.45;;;4.15;;
47113;SDS011;32867;51.556;6.832;2023-06-19T13:17:46;6.03;;;4.07;;
47113;SDS011;32867;51.556;6.832;2023-06-19T13:22:47;6.32;;;4.78;;
47113;SDS011;32867;51.556;6.832;2023-06-19T13:27:48;7.05;;;4.75;;
47113;SDS011;32867;51.556;6.832;2023-06-19T13:32:49;7.90;;;5.03;;
47113;SDS011;32867;51.556;6.832;2023-06-19T13:37:49;6.55;;;4.13;;
47113;SDS011;32867;51.556;6.832;2023-06-19T13:42:50;10.20;;;5.55;;
47113;SDS011;32867;51.556;6.832;2023-06-19T13:47:51;5.07;;;4.32;;
47113;SDS011;32867;51.556;6.832;2023-06-19T13:52:51;4.68;;;4.05;;
47113;SDS011;32867;51.556;6.832;2023-06-19T13:57:53;7.20;;;4.63;;
47113;SDS011;32867;51.556;6.832;2023-06-19T14:02:54;8.15;;;4.63;;
47113;SDS011;32867;51.556;6.832;2023-06-19T14:07:55;5.32;;;3.50;;
47113;SDS011;32867;51.556;6.832;2023-06-19T14:12:55;7.35;;;4.15;;
47113;SDS011;32867;51.556;6.832;2023-06-19T14:17:56;10.63;;;4.60;;
47113;SDS011;32867;51.556;6.832;2023-06-19T14:22:57;9.02;;;3.90;;
47113;SDS011;32867;51.556;6.832;2023-06-19T14:27:57;5.75;;;3.95;;
47113;SDS011;32867;51.556;6.832;2023-06-19T14:32:58;6.07;;;4.32;;
47113;SDS011;32867;51.556;6.832;2023-06-19T14:38:02;5.97;;;4.63;;
47113;SDS011;32867;51.556;6.832;2023-06-19T14:43:02;7.25;;;4.18;;
47113;SDS011;32867;51.556;6.832;2023-06-19T14:48:03;6.25;;;4.50;;
47113;SDS011;32867;51.556;6.832;2023-06-19T14:53:05;7.05;;;4.50;;
47113;SDS011;32867;51.556;6.832;2023-06-19T14:58:05;4.60;;;3.70;;
47113;SDS011;32867;51.556;6.832;2023-06-19T15:03:07;7.00;;;4.00;;
47113;SDS011;32867;51.556;6.832;2023-06-19T15:08:08;6.35;;;4.28;;
47113;SDS011;32867;51.556;6.832;2023-06-19T15:13:10;5.43;;;3.80;;
47113;SDS011;32867;51.556;6.832;2023-06-19T15:18:11;7.43;;;4.07;;
47113;SDS011;32867;51.556;6.832;2023-06-19T15:23:11;6.22;;;4.05;;
47113;SDS011;32867;51.556;6.832;2023-06-19T15:28:12;6.28;;;3.90;;
47113;SDS011;32867;51.556;6.832;2023-06-19T15:33:13;7.57;;;4.32;;
47113;SDS011;32867;51.556;6.832;2023-06-19T15:38:14;6.22;;;4.47;;
47113;SDS011;32867;51.556;6.832;2023-06-19T15:43:15;5.50;;;4.43;;
47113;SDS011;32867;51.556;6.832;2023-06-19T15:48:15;7.47;;;4.63;;
47113;SDS011;32867;51.556;6.832;2023-06-19T15:53:16;6.22;;;3.78;;
47113;SDS011;32867;51.556;6.832;2023-06-19T15:58:17;8.05;;;4.30;;
47113;SDS011;32867;51.556;6.832;2023-06-19T16:03:18;4.97;;;3.80;;
47113;SDS011;32867;51.556;6.832;2023-06-19T16:08:20;8.10;;;3.80;;
47113;SDS011;32867;51.556;6.832;2023-06-19T16:13:24;5.38;;;3.92;;
47113;SDS011;32867;51.556;6.832;2023-06-19T16:18:25;7.57;;;3.88;;
47113;SDS011;32867;51.556;6.832;2023-06-19T16:23:27;6.68;;;4.40;;
47113;SDS011;32867;51.556;6.832;2023-06-19T16:28:27;9.32;;;4.57;;
47113;SDS011;32867;51.556;6.832;2023-06-19T16:33:29;6.00;;;3.95;;
47113;SDS011;32867;51.556;6.832;2023-06-19T16:38:31;7.07;;;4.32;;
47113;SDS011;32867;51.556;6.832;2023-06-19T16:43:32;6.95;;;4.30;;
47113;SDS011;32867;51.556;6.832;2023-06-19T16:53:35;7.30;;;4.50;;
47113;SDS011;32867;51.556;6.832;2023-06-19T16:58:36;7.40;;;4.22;;
47113;SDS011;32867;51.556;6.832;2023-06-19T17:03:36;6.80;;;3.85;;
47113;SDS011;32867;51.556;6.832;2023-06-19T17:08:37;7.15;;;4.00;;
47113;SDS011;32867;51.556;6.832;2023-06-19T17:13:38;4.03;;;3.60;;
47113;SDS011;32867;51.556;6.832;2023-06-19T17:18:39;4.82;;;3.90;;
47113;SDS011;32867;51.556;6.832;2023-06-19T17:23:40;5.65;;;3.97;;
47113;SDS011;32867;51.556;6.832;2023-06-19T17:28:40;5.80;;;3.88;;
47113;SDS011;32867;51.556;6.832;2023-06-19T17:33:41;6.80;;;3.95;;
47113;SDS011;32867;51.556;6.832;2023-06-19T17:38:42;7.35;;;6.40;;
47113;SDS011;32867;51.556;6.832;2023-06-19T17:43:42;4.38;;;3.60;;
47113;SDS011;32867;51.556;6.832;2023-06-19T17:48:43;3.85;;;3.22;;
47113;SDS011;32867;51.556;6.832;2023-06-19T17:53:44;4.30;;;3.80;;
47113;SDS011;32867;51.556;6.832;2023-06-19T17:58:44;5.10;;;3.97;;
47113;SDS011;32867;51.556;6.832;2023-06-19T18:03:45;4.82;;;3.30;;
47113;SDS011;32867;51.556;6.832;2023-06-19T18:08:46;4.95;;;3.40;;
47113;SDS011;32867;51.556;6.832;2023-06-19T18:13:47;4.25;;;3.20;;
47113;SDS011;32867;51.556;6.832;2023-06-19T18:18:47;5.93;;;3.33;;
47113;SDS011;32867;51.556;6.832;2023-06-19T18:23:48;4.03;;;3.30;;
47113;SDS011;32867;51.556;6.832;2023-06-19T18:28:49;5.60;;;3.63;;
47113;SDS011;32867;51.556;6.832;2023-06-19T18:33:50;4.43;;;3.53;;
47113;SDS011;32867;51.556;6.832;2023-06-19T18:38:50;4.57;;;3.20;;
47113;SDS011;32867;51.556;6.832;2023-06-19T18:43:51;4.30;;;3.33;;
47113;SDS011;32867;51.556;6.832;2023-06-19T18:48:52;4.40;;;3.22;;
47113;SDS011;32867;51.556;6.832;2023-06-19T18:53:52;5.18;;;3.38;;
47113;SDS011;32867;51.556;6.832;2023-06-19T18:58:53;4.28;;;3.33;;
47113;SDS011;32867;51.556;6.832;2023-06-19T19:03:54;4.00;;;3.13;;
47113;SDS011;32867;51.556;6.832;2023-06-19T19:08:55;4.95;;;3.25;;
47113;SDS011;32867;51.556;6.832;2023-06-19T19:13:57;4.82;;;2.92;;
47113;SDS011;32867;51.556;6.832;2023-06-19T19:18:58;4.10;;;3.35;;
47113;SDS011;32867;51.556;6.832;2023-06-19T19:23:59;5.70;;;3.45;;
47113;SDS011;32867;51.556;6.832;2023-06-19T19:28:59;5.95;;;3.88;;
47113;SDS011;32867;51.556;6.832;2023-06-19T19:34:00;4.90;;;3.53;;
47113;SDS011;32867;51.556;6.832;2023-06-19T19:39:01;4.28;;;3.25;;
47113;SDS011;32867;51.556;6.832;2023-06-19T19:44:01;4.45;;;3.75;;
47113;SDS011;32867;51.556;6.832;2023-06-19T19:49:02;4.97;;;3.72;;
47113;SDS011;32867;51.556;6.832;2023-06-19T19:54:03;6.40;;;4.25;;
47113;SDS011;32867;51.556;6.832;2023-06-19T19:59:03;6.15;;;4.35;;
47113;SDS011;32867;51.556;6.832;2023-06-19T20:04:04;5.75;;;4.00;;
47113;SDS011;32867;51.556;6.832;2023-06-19T20:09:05;6.50;;;3.88;;
47113;SDS011;32867;51.556;6.832;2023-06-19T20:14:06;5.38;;;3.92;;
47113;SDS011;32867;51.556;6.832;2023-06-19T20:19:07;5.50;;;3.85;;
47113;SDS011;32867;51.556;6.832;2023-06-19T20:24:08;5.40;;;4.03;;
47113;SDS011;32867;51.556;6.832;2023-06-19T20:29:08;5.97;;;3.95;;
47113;SDS011;32867;51.556;6.832;2023-06-19T20:34:09;6.57;;;4.15;;
47113;SDS011;32867;51.556;6.832;2023-06-19T20:39:11;5.65;;;4.03;;
47113;SDS011;32867;51.556;6.832;2023-06-19T20:44:11;7.32;;;4.63;;
47113;SDS011;32867;51.556;6.832;2023-06-19T20:49:13;7.20;;;4.40;;
47113;SDS011;32867;51.556;6.832;2023-06-19T20:54:14;5.55;;;4.40;;
47113;SDS011;32867;51.556;6.832;2023-06-19T20:59:14;5.72;;;4.20;;
47113;SDS011;32867;51.556;6.832;2023-06-19T21:04:15;5.30;;;4.63;;
47113;SDS011;32867;51.556;6.832;2023-06-19T21:09:16;6.43;;;4.30;;
47113;SDS011;32867;51.556;6.832;2023-06-19T21:14:18;6.50;;;4.88;;
47113;SDS011;32867;51.556;6.832;2023-06-19T21:19:19;6.88;;;4.05;;
47113;SDS011;32867;51.556;6.832;2023-06-19T21:24:19;5.57;;;4.60;;
47113;SDS011;32867;51.556;6.832;2023-06-19T21:29:20;5.60;;;4.43;;
47113;SDS011;32867;51.556;6.832;2023-06-19T21:34:21;8.32;;;4.60;;
47113;SDS011;32867;51.556;6.832;2023-06-19T21:39:23;7.03;;;4.80;;
47113;SDS011;32867;51.556;6.832;2023-06-19T21:44:24;7.32;;;4.50;;
47113;SDS011;32867;51.556;6.832;2023-06-19T21:49:24;10.00;;;5.43;;
47113;SDS011;32867;51.556;6.832;2023-06-19T21:54:25;8.02;;;4.70;;
47113;SDS011;32867;51.556;6.832;2023-06-19T21:59:26;5.95;;;4.30;;
47113;SDS011;32867;51.556;6.832;2023-06-19T22:04:26;7.20;;;4.90;;
47113;SDS011;32867;51.556;6.832;2023-06-19T22:09:27;7.00;;;4.70;;
47113;SDS011;32867;51.556;6.832;2023-06-19T22:14:29;7.80;;;4.45;;
47113;SDS011;32867;51.556;6.832;2023-06-19T22:19:30;7.10;;;5.53;;
47113;SDS011;32867;51.556;6.832;2023-06-19T22:24:30;6.60;;;4.93;;
47113;SDS011;32867;51.556;6.832;2023-06-19T22:29:36;8.03;;;5.77;;
47113;SDS011;32867;51.556;6.832;2023-06-19T22:34:36;7.40;;;5.05;;
47113;SDS011;32867;51.556;6.832;2023-06-19T22:39:37;7.07;;;5.43;;
47113;SDS011;32867;51.556;6.832;2023-06-19T22:44:38;7.88;;;5.18;;
47113;SDS011;32867;51.556;6.832;2023-06-19T22:49:38;9.05;;;5.57;;
47113;SDS011;32867;51.556;6.832;2023-06-19T22:54:40;5.35;;;4.70;;
47113;SDS011;32867;51.556;6.832;2023-06-19T22:59:41;8.13;;;5.32;;
47113;SDS011;32867;51.556;6.832;2023-06-19T23:04:42;8.10;;;5.18;;
47113;SDS011;32867;51.556;6.832;2023-06-19T23:09:43;6.95;;;5.38;;
47113;SDS011;32867;51.556;6.832;2023-06-19T23:14:45;6.43;;;5.47;;
47113;SDS011;32867;51.556;6.832;2023-06-19T23:19:45;6.68;;;5.50;;
47113;SDS011;32867;51.556;6.832;2023-06-19T23:24:46;8.00;;;5.47;;
47113;SDS011;32867;51.556;6.832;2023-06-19T23:29:47;6.82;;;5.00;;
47113;SDS011;32867;51.556;6.832;2023-06-19T23:34:47;6.18;;;5.20;;
47113;SDS011;32867;51.556;6.832;2023-06-19T23:39:51;6.40;;;5.03;;
47113;SDS011;32867;51.556;6.832;2023-06-19T23:44:52;7.32;;;5.07;;
47113;SDS011;32867;51.556;6.832;2023-06-19T23:49:53;7.95;;;5.75;;
47113;SDS011;32867;51.556;6.832;2023-06-19T23:54:53;6.65;;;4.93;;
47113;SDS011;32867;51.556;6.832;2023-06-19T23:59:54;7.40;;;5.25;;
